NCAR-RAP Real-Time Weather Data

Output produced by METARs form (26 September 2018  02:44 UTC)
found at http://weather.rap.ucar.edu/surface/
 
Conditions at: KHQZ observed 26 September 2018  02:35 UTC
Temperature: 24.6°C (76°F)
Dewpoint: 22.5°C (72°F) [RH = 88%]
Pressure (altimeter): 29.97 inches Hg (1015.0 mb)
Winds: from the ESE (120 degrees) at 5 MPH (4 knots; 2.1 m/s)
Visibility: 10 or more miles (16+ km)
Ceiling: at least 12,000 feet AGL
Clouds: sky clear below 12,000 feet AGL
Present Weather: automated observation with no human augmentation;
there may or may not be significant weather present at this time
KHQZ 260235Z AUTO 12004KT 10SM CLR 25/23 A2997 RMK AO1 T02460225